createdAt,value
2022-10-21T00:00:55.682Z,65189.41
2022-10-21T00:03:25.111Z,65189.41
2022-10-21T00:05:53.390Z,65189.41
2022-10-21T00:08:21.424Z,65189.41
2022-10-21T00:10:57.725Z,65189.41
2022-10-21T00:13:26.173Z,65189.41
2022-10-21T00:16:17.830Z,65189.41
2022-10-21T00:18:47.161Z,65189.41
2022-10-21T00:21:20.387Z,65189.41
2022-10-21T00:23:49.816Z,65189.41
2022-10-21T00:26:17.454Z,65189.41
2022-10-21T00:28:44.935Z,65189.41
2022-10-21T00:31:15.008Z,65189.41
2022-10-21T00:33:43.158Z,65189.41
2022-10-21T00:36:15.589Z,65189.41
2022-10-21T00:38:48.491Z,65189.41
2022-10-21T00:41:18.514Z,65189.41
2022-10-21T00:44:02.225Z,65189.41
2022-10-21T00:46:39.972Z,65189.41
2022-10-21T00:49:16.323Z,65189.41
2022-10-21T00:51:48.294Z,65189.41
2022-10-21T00:54:17.491Z,65189.41
2022-10-21T00:56:47.620Z,65189.41
2022-10-21T00:59:15.913Z,65189.41
2022-10-21T01:01:43.403Z,65189.41
2022-10-21T01:04:10.939Z,65189.41
2022-10-21T01:06:40.085Z,65189.41
2022-10-21T01:09:07.850Z,65189.41
2022-10-21T01:11:45.327Z,65189.41
2022-10-21T01:14:22.033Z,65189.41
2022-10-21T01:17:43.575Z,65189.41
2022-10-21T01:20:35.037Z,65189.41
2022-10-21T01:23:40.093Z,65189.41
2022-10-21T01:26:16.594Z,65189.41
2022-10-21T01:29:22.841Z,65189.41
2022-10-21T01:32:08.002Z,65189.41
2022-10-21T01:34:54.582Z,65189.41
2022-10-21T01:37:48.117Z,65189.41
2022-10-21T01:40:25.284Z,65189.41
2022-10-21T01:42:57.014Z,65189.41
2022-10-21T01:45:46.387Z,65189.41
2022-10-21T01:48:19.129Z,65189.41
2022-10-21T01:50:52.263Z,65189.41
2022-10-21T01:53:21.791Z,65189.41
2022-10-21T01:55:50.896Z,65189.41
2022-10-21T01:58:25.689Z,65189.41
2022-10-21T02:00:56.316Z,65189.41
2022-10-21T02:03:35.042Z,65189.41
2022-10-21T02:06:02.719Z,65189.41
2022-10-21T02:08:30.350Z,65189.41
2022-10-21T02:11:01.354Z,65189.41
2022-10-21T02:13:42.101Z,65189.41
2022-10-21T02:16:15.380Z,65189.41
2022-10-21T02:18:42.725Z,65189.41
2022-10-21T02:21:21.125Z,65189.41
2022-10-21T02:24:22.464Z,65189.41
2022-10-21T02:26:49.958Z,65189.41
2022-10-21T02:29:23.946Z,65189.41
2022-10-21T02:32:05.418Z,65189.41
2022-10-21T02:34:32.929Z,65189.41
2022-10-21T02:37:03.021Z,65189.41
2022-10-21T02:39:39.224Z,65189.41
2022-10-21T02:42:11.018Z,65189.41
2022-10-21T02:44:38.456Z,65189.41
2022-10-21T02:47:06.027Z,65189.41
2022-10-21T02:49:33.333Z,65189.41
2022-10-21T02:52:00.598Z,65189.41
2022-10-21T02:54:27.880Z,65189.41
2022-10-21T02:56:55.207Z,65189.41
2022-10-21T02:59:22.621Z,65189.41
2022-10-21T03:01:49.984Z,65189.41
2022-10-21T03:04:17.271Z,65189.41
2022-10-21T03:06:44.645Z,65189.41
2022-10-21T03:09:11.898Z,65189.41
2022-10-21T03:11:39.238Z,65189.41
2022-10-21T03:14:06.513Z,65189.41
2022-10-21T03:16:33.869Z,65189.41
2022-10-21T03:19:01.359Z,65189.41
2022-10-21T03:21:28.710Z,65189.41
2022-10-21T03:23:56.194Z,65189.41
2022-10-21T03:26:25.594Z,65189.41
2022-10-21T03:28:52.922Z,65189.41
2022-10-21T03:31:20.254Z,65189.41
2022-10-21T03:33:47.538Z,65189.41
2022-10-21T03:36:15.002Z,65189.41
2022-10-21T03:38:42.271Z,65189.41
2022-10-21T03:41:09.716Z,65189.41
2022-10-21T03:43:38.767Z,65189.41
2022-10-21T03:46:06.212Z,65189.41
2022-10-21T03:48:33.620Z,65189.41
2022-10-21T03:51:00.924Z,65189.41
2022-10-21T03:53:42.110Z,65189.41
2022-10-21T03:56:10.539Z,65189.41
2022-10-21T03:58:37.937Z,65189.41
2022-10-21T04:01:05.746Z,65189.41
2022-10-21T04:03:33.112Z,65189.41
2022-10-21T04:06:00.405Z,65189.41
2022-10-21T04:08:27.741Z,65189.41
2022-10-21T04:10:58.209Z,65189.41
2022-10-21T04:13:25.679Z,65189.41
2022-10-21T04:15:59.361Z,65189.41
2022-10-21T04:18:26.871Z,65189.41
2022-10-21T04:20:54.169Z,65189.41
2022-10-21T04:23:21.676Z,65189.41
2022-10-21T04:25:49.010Z,65189.41
2022-10-21T04:28:16.473Z,65189.41
2022-10-21T04:30:43.798Z,65189.41
2022-10-21T04:33:11.083Z,65189.41
2022-10-21T04:35:40.308Z,65189.41
2022-10-21T04:38:07.867Z,65189.41
2022-10-21T04:40:35.357Z,65189.41
2022-10-21T04:43:03.529Z,65189.41
2022-10-21T04:45:30.906Z,65189.41
2022-10-21T04:47:58.193Z,65189.41
2022-10-21T04:50:25.519Z,65189.41
2022-10-21T04:52:52.852Z,65189.41
2022-10-21T04:55:20.182Z,65189.41
2022-10-21T04:57:47.559Z,65189.41
2022-10-21T05:00:15.209Z,65189.41
2022-10-21T05:02:42.675Z,65189.41
2022-10-21T05:05:10.242Z,65189.41
2022-10-21T05:07:37.528Z,65189.41
2022-10-21T05:10:05.611Z,65189.41
2022-10-21T05:12:32.970Z,65189.41
2022-10-21T05:15:02.110Z,65189.41
2022-10-21T05:17:29.470Z,65189.41
2022-10-21T05:19:56.725Z,65189.41
2022-10-21T05:22:24.014Z,65189.41
2022-10-21T05:24:51.369Z,65189.41
2022-10-21T05:27:18.677Z,65189.41
2022-10-21T05:29:45.978Z,65189.41
2022-10-21T05:32:13.337Z,65189.41
2022-10-21T05:34:40.655Z,65189.41
2022-10-21T05:37:07.997Z,65189.41
2022-10-21T05:39:35.358Z,65189.41
2022-10-21T05:42:02.856Z,65189.41
2022-10-21T05:44:30.133Z,65189.41
2022-10-21T05:46:57.516Z,65189.41
2022-10-21T05:49:25.161Z,65189.41
2022-10-21T05:51:52.767Z,65189.41
2022-10-21T05:54:20.349Z,65189.41
2022-10-21T05:56:48.273Z,65189.41
2022-10-21T05:59:15.936Z,65189.41
2022-10-21T06:01:43.403Z,65189.41
2022-10-21T06:04:10.712Z,65189.41
2022-10-21T06:06:38.076Z,65189.41
2022-10-21T06:09:05.882Z,65189.41
2022-10-21T06:11:33.445Z,65189.41
2022-10-21T06:14:00.943Z,65189.41
2022-10-21T06:16:28.267Z,65189.41
2022-10-21T06:18:55.698Z,65189.41
2022-10-21T06:21:23.023Z,65189.41
2022-10-21T06:23:54.227Z,65189.41
2022-10-21T06:26:21.619Z,65189.41
2022-10-21T06:28:48.960Z,65189.41
2022-10-21T06:31:20.591Z,65189.41
2022-10-21T06:33:48.472Z,65189.41
2022-10-21T06:36:16.439Z,65189.41
2022-10-21T06:38:44.505Z,65189.41
2022-10-21T06:41:14.353Z,65189.41
2022-10-21T06:43:42.735Z,65189.41
2022-10-21T06:46:12.810Z,65189.41
2022-10-21T06:48:40.281Z,65189.41
2022-10-21T06:51:10.579Z,65189.41
2022-10-21T06:53:39.358Z,65189.41
2022-10-21T06:56:10.242Z,65189.41
2022-10-21T06:58:39.053Z,65189.41
2022-10-21T07:01:21.528Z,65189.41
2022-10-21T07:03:59.224Z,65189.41
2022-10-21T07:06:27.001Z,65189.41
2022-10-21T07:08:58.178Z,65189.41
2022-10-21T07:11:27.600Z,65189.41
2022-10-21T07:13:55.356Z,65189.41
2022-10-21T07:16:29.743Z,65189.41
2022-10-21T07:18:57.551Z,65189.41
2022-10-21T07:21:27.374Z,65189.41
2022-10-21T07:23:57.918Z,65189.41
2022-10-21T07:26:29.068Z,65189.41
2022-10-21T07:28:58.776Z,65189.41
2022-10-21T07:31:27.437Z,65189.41
2022-10-21T07:33:54.814Z,65189.41
2022-10-21T07:36:27.920Z,65189.41
2022-10-21T07:38:59.138Z,65189.41
2022-10-21T07:41:32.864Z,65189.41
2022-10-21T07:44:01.021Z,65189.41
2022-10-21T07:46:28.403Z,65189.41
2022-10-21T07:48:56.158Z,65189.41
2022-10-21T07:51:28.690Z,65189.41
2022-10-21T07:53:59.912Z,65189.41
2022-10-21T07:56:30.298Z,65189.41
2022-10-21T07:58:57.863Z,65189.41
2022-10-21T08:01:25.500Z,65189.41
2022-10-21T08:03:54.980Z,65189.41
2022-10-21T08:06:23.350Z,65189.41
2022-10-21T08:08:51.034Z,65189.41
2022-10-21T08:11:30.115Z,65189.41
2022-10-21T08:13:58.307Z,65189.41
2022-10-21T08:16:27.022Z,65189.41
2022-10-21T08:18:55.473Z,65189.41
2022-10-21T08:21:23.068Z,65189.41
2022-10-21T08:23:50.501Z,65189.41
2022-10-21T08:26:17.840Z,65189.41
2022-10-21T08:28:45.417Z,65189.41
2022-10-21T08:31:22.954Z,65189.41
2022-10-21T08:33:50.630Z,65189.41
2022-10-21T08:36:25.071Z,65189.41
2022-10-21T08:38:53.710Z,65189.41
2022-10-21T08:41:34.933Z,65189.41
2022-10-21T08:44:23.260Z,65189.41
2022-10-21T08:46:57.771Z,65189.41
2022-10-21T08:49:37.660Z,65189.41
2022-10-21T08:52:16.522Z,65189.41
2022-10-21T08:54:51.091Z,65189.41
2022-10-21T08:57:19.849Z,65189.41
2022-10-21T08:59:47.547Z,65189.41
2022-10-21T09:02:30.320Z,65189.41
2022-10-21T09:08:08.966Z,65189.41
2022-10-21T09:10:51.459Z,65189.41
2022-10-21T09:13:18.729Z,65189.41
2022-10-21T09:16:10.941Z,65189.41
2022-10-21T09:19:02.123Z,65189.41
2022-10-21T09:21:41.630Z,65189.41
2022-10-21T09:24:13.606Z,65189.41
2022-10-21T09:26:48.093Z,65189.41
2022-10-21T09:29:47.581Z,65189.41
2022-10-21T09:32:19.688Z,65189.41
2022-10-21T09:35:25.330Z,65189.41
2022-10-21T09:37:57.652Z,65189.41
2022-10-21T09:40:28.584Z,65189.41
2022-10-21T09:42:59.200Z,65189.41
2022-10-21T09:45:41.531Z,65189.41
2022-10-21T09:48:18.224Z,65189.41
2022-10-21T09:51:20.416Z,65189.41
2022-10-21T09:54:13.406Z,65189.41
2022-10-21T09:56:49.965Z,65189.41
2022-10-21T09:59:21.220Z,65189.41
2022-10-21T10:01:49.838Z,65189.41
2022-10-21T10:04:34.800Z,65189.41
2022-10-21T10:07:19.204Z,65189.41
2022-10-21T10:09:48.361Z,65189.41
2022-10-21T10:12:26.938Z,65189.41
2022-10-21T10:14:55.539Z,65189.41
2022-10-21T10:17:39.776Z,65189.41
2022-10-21T10:20:07.239Z,65189.41
2022-10-21T10:22:38.589Z,65189.41
2022-10-21T10:25:15.205Z,65189.41
2022-10-21T10:27:59.425Z,65189.41
2022-10-21T10:30:47.958Z,65189.41
2022-10-21T10:33:18.939Z,65189.41
2022-10-21T10:35:51.389Z,65189.41
2022-10-21T10:38:35.843Z,65189.41
2022-10-21T10:41:17.741Z,65189.41
2022-10-21T10:43:48.843Z,65189.41
2022-10-21T10:46:27.020Z,65189.41
2022-10-21T10:49:50.392Z,70595.84
2022-10-21T10:52:22.930Z,70602.50
2022-10-21T10:55:15.482Z,70612.78
2022-10-21T10:57:59.114Z,70631.00
2022-10-21T11:00:42.760Z,70643.22
2022-10-21T11:03:26.274Z,70670.53
2022-10-21T11:06:02.939Z,70735.06
2022-10-21T11:08:43.100Z,70747.97
2022-10-21T11:11:32.149Z,70816.50
2022-10-21T11:17:01.006Z,70961.69
2022-10-21T11:19:28.976Z,71097.63
2022-10-21T11:22:09.230Z,71085.09
2022-10-21T11:24:54.542Z,70994.28
2022-10-21T11:27:43.263Z,70906.41
2022-10-21T11:30:21.498Z,70867.63
2022-10-21T11:33:03.791Z,70799.16
2022-10-21T11:35:56.711Z,70757.94
2022-10-21T11:38:50.885Z,70737.94
2022-10-21T11:41:32.297Z,70701.34
2022-10-21T11:44:08.498Z,70704.09
2022-10-21T11:47:09.567Z,70687.94
2022-10-21T11:49:51.515Z,70680.34
2022-10-21T11:52:31.460Z,70693.06
2022-10-21T11:55:38.728Z,70709.94
2022-10-21T11:58:08.101Z,70669.47
2022-10-21T12:00:48.886Z,70689.84
2022-10-21T12:03:31.385Z,70678.41
2022-10-21T12:06:04.351Z,70675.66
2022-10-21T12:08:51.590Z,70691.97
2022-10-21T12:11:29.059Z,70682.06
2022-10-21T12:14:18.130Z,70606.09
2022-10-21T12:16:47.256Z,70650.41
2022-10-21T12:19:15.785Z,70675.34
2022-10-21T12:21:45.866Z,70622.81
2022-10-21T12:24:28.783Z,70601.34
2022-10-21T12:27:18.949Z,70595.16
2022-10-21T12:30:10.573Z,70590.25
2022-10-21T12:33:13.061Z,70552.13
2022-10-21T12:35:54.885Z,70624.19
2022-10-21T12:38:44.672Z,70574.63
2022-10-21T12:41:24.305Z,70590.56
2022-10-21T12:43:59.128Z,70563.47
2022-10-21T12:46:30.439Z,70562.91
2022-10-21T12:49:00.986Z,70554.97
2022-10-21T12:51:31.548Z,70532.00
2022-10-21T12:54:09.310Z,70516.53
2022-10-21T12:56:49.570Z,70524.34
2022-10-21T12:59:30.428Z,70433.03
2022-10-21T13:02:07.835Z,70446.16
2022-10-21T13:04:35.098Z,70402.06
2022-10-21T13:07:15.654Z,70382.09
2022-10-21T13:09:56.799Z,70376.88
2022-10-21T13:12:24.062Z,70372.88
2022-10-21T13:14:52.491Z,70377.03
2022-10-21T13:17:22.860Z,70372.16
2022-10-21T13:19:55.902Z,70299.50
2022-10-21T13:22:40.179Z,70301.88
2022-10-21T13:25:16.751Z,70287.25
2022-10-21T13:27:52.769Z,70281.47
2022-10-21T13:30:32.459Z,70277.41
2022-10-21T13:33:17.971Z,70209.88
2022-10-21T13:35:51.166Z,70251.97
2022-10-21T13:38:25.860Z,70204.09
2022-10-21T13:41:22.815Z,70212.59
2022-10-21T13:44:02.478Z,70221.13
2022-10-21T13:46:39.155Z,70243.81
2022-10-21T13:49:29.661Z,70195.63
2022-10-21T13:51:57.082Z,70195.94
2022-10-21T13:54:24.462Z,70239.50
2022-10-21T13:56:51.849Z,70207.22
2022-10-21T13:59:33.846Z,70181.63
2022-10-21T14:02:02.084Z,70186.66
2022-10-21T14:04:32.239Z,70172.88
2022-10-21T14:07:07.934Z,70237.25
2022-10-21T14:09:47.967Z,70210.50
2022-10-21T14:12:45.172Z,70176.44
2022-10-21T14:15:21.678Z,70179.16
2022-10-21T14:17:55.321Z,70197.91
2022-10-21T14:20:42.496Z,70158.00
2022-10-21T14:23:18.884Z,70172.13
2022-10-21T14:25:50.031Z,70131.03
2022-10-21T14:28:18.919Z,70151.91
2022-10-21T14:30:47.476Z,70134.28
2022-10-21T14:33:22.822Z,70169.84
2022-10-21T14:36:09.188Z,70166.91
2022-10-21T14:38:40.968Z,70126.97
2022-10-21T14:41:15.307Z,70131.72
2022-10-21T14:43:45.245Z,70125.81
2022-10-21T14:46:13.617Z,70132.25
2022-10-21T14:48:48.350Z,70121.16
2022-10-21T14:51:21.518Z,70148.72
2022-10-21T14:54:07.399Z,70173.41
2022-10-21T14:56:40.372Z,70139.91
2022-10-21T14:59:33.073Z,70130.22
2022-10-21T15:02:01.667Z,70137.00
2022-10-21T15:04:56.179Z,70125.88
2022-10-21T15:07:30.717Z,70132.91
2022-10-21T15:09:59.656Z,70152.31
2022-10-21T15:12:27.207Z,70128.25
2022-10-21T15:14:54.666Z,70105.94
2022-10-21T15:17:23.524Z,70110.69
2022-10-21T15:19:52.795Z,70140.03
2022-10-21T15:22:24.895Z,70119.47
2022-10-21T15:24:53.960Z,70147.41
2022-10-21T15:27:40.143Z,70142.69
2022-10-21T15:30:22.221Z,70147.09
2022-10-21T15:32:50.719Z,70145.97
2022-10-21T15:35:20.877Z,70143.91
2022-10-21T15:37:49.955Z,70127.75
2022-10-21T15:40:18.458Z,70146.56
2022-10-21T15:42:46.782Z,70117.78
2022-10-21T15:45:24.595Z,70144.22
2022-10-21T15:47:53.485Z,70116.94
2022-10-21T15:50:23.350Z,70119.31
2022-10-21T15:52:50.836Z,70129.28
2022-10-21T15:55:18.374Z,70117.25
2022-10-21T15:57:45.773Z,70137.78
2022-10-21T16:00:20.531Z,70111.38
2022-10-21T16:02:49.069Z,70094.34
2022-10-21T16:05:17.473Z,70064.41
2022-10-21T16:07:45.913Z,70011.25
2022-10-21T16:10:36.134Z,70080.31
2022-10-21T16:13:04.220Z,70115.50
2022-10-21T16:15:31.743Z,70085.84
2022-10-21T16:17:59.943Z,70105.81
2022-10-21T16:20:30.246Z,70136.06
2022-10-21T16:23:02.030Z,70088.50
2022-10-21T16:25:31.577Z,70056.81
2022-10-21T16:27:59.268Z,70099.06
2022-10-21T16:30:36.428Z,70069.78
2022-10-21T16:33:03.811Z,70085.63
2022-10-21T16:35:31.254Z,70095.03
2022-10-21T16:37:58.621Z,70092.72
2022-10-21T16:40:31.659Z,70061.06
2022-10-21T16:42:59.046Z,70068.13
2022-10-21T16:45:30.229Z,70071.94
2022-10-21T16:47:59.849Z,70108.31
2022-10-21T16:50:33.481Z,70106.28
2022-10-21T16:53:02.260Z,70062.59
2022-10-21T16:55:29.744Z,70095.44
2022-10-21T16:57:57.064Z,70120.06
2022-10-21T17:00:24.458Z,70093.94
2022-10-21T17:02:52.645Z,70100.41
2022-10-21T17:05:20.115Z,70081.06
2022-10-21T17:07:47.482Z,70080.47
2022-10-21T17:10:14.895Z,70086.34
2022-10-21T17:12:42.492Z,70076.38
2022-10-21T17:15:15.259Z,70088.06
2022-10-21T17:17:42.740Z,70074.88
2022-10-21T17:20:10.701Z,70089.84
2022-10-21T17:22:38.002Z,70062.84
2022-10-21T17:25:05.738Z,70083.97
2022-10-21T17:27:33.097Z,70066.06
2022-10-21T17:30:00.415Z,70089.22
2022-10-21T17:32:27.853Z,70071.63
2022-10-21T17:34:55.175Z,70106.25
2022-10-21T17:37:22.534Z,70098.59
2022-10-21T17:39:49.935Z,70086.25
2022-10-21T17:42:17.535Z,70106.19
2022-10-21T17:44:45.537Z,70081.88
2022-10-21T17:47:14.811Z,70104.47
2022-10-21T17:49:42.291Z,70094.50
2022-10-21T17:52:10.166Z,70125.59
2022-10-21T17:54:37.790Z,70052.28
2022-10-21T17:57:05.202Z,70079.84
2022-10-21T17:59:33.010Z,70049.34
2022-10-21T18:02:00.917Z,70053.69
2022-10-21T18:04:28.650Z,70066.03
2022-10-21T18:06:56.063Z,70071.56
2022-10-21T18:09:23.421Z,70048.06
2022-10-21T18:11:50.900Z,70057.44
2022-10-21T18:14:18.365Z,70090.31
2022-10-21T18:16:45.796Z,70065.84
2022-10-21T18:19:13.880Z,70103.19
2022-10-21T18:21:41.199Z,70090.88
2022-10-21T18:24:12.453Z,70092.31
2022-10-21T18:26:40.189Z,70097.88
2022-10-21T18:29:07.741Z,70088.44
2022-10-21T18:31:36.519Z,70111.28
2022-10-21T18:34:05.784Z,70136.25
2022-10-21T18:36:33.593Z,70121.03
2022-10-21T18:39:02.019Z,70131.91
2022-10-21T18:41:30.329Z,70121.34
2022-10-21T18:44:01.275Z,70081.13
2022-10-21T18:46:31.745Z,70118.09
2022-10-21T18:48:59.246Z,70092.88
2022-10-21T18:51:26.667Z,70093.75
2022-10-21T18:53:54.059Z,70096.97
2022-10-21T18:56:24.343Z,70106.38
2022-10-21T18:58:52.144Z,70107.53
2022-10-21T19:01:21.370Z,70121.34
2022-10-21T19:03:50.844Z,70126.03
2022-10-21T19:06:41.087Z,70124.56
2022-10-21T19:09:16.187Z,70079.06
2022-10-21T19:11:44.350Z,70107.81
2022-10-21T19:14:14.219Z,70116.03
2022-10-21T19:16:43.438Z,70131.25
2022-10-21T19:19:11.172Z,70110.13
2022-10-21T19:21:38.855Z,70098.41
2022-10-21T19:24:07.058Z,70102.50
2022-10-21T19:26:36.451Z,70083.41
2022-10-21T19:29:07.171Z,70129.16
2022-10-21T19:31:36.372Z,70120.94
2022-10-21T19:34:06.398Z,70116.53
2022-10-21T19:36:34.212Z,70122.97
2022-10-21T19:39:01.678Z,70095.06
2022-10-21T19:41:28.957Z,70117.13
2022-10-21T19:43:58.530Z,70085.09
2022-10-21T19:46:28.326Z,70105.38
2022-10-21T19:48:55.638Z,70117.69
2022-10-21T19:51:25.230Z,70130.91
2022-10-21T19:53:54.083Z,70093.00
2022-10-21T19:56:26.863Z,70151.44
2022-10-21T19:58:55.309Z,70133.50
2022-10-21T20:01:25.399Z,70147.59
2022-10-21T20:03:53.605Z,70132.56
2022-10-21T20:06:27.401Z,70145.22
2022-10-21T20:08:56.768Z,70152.78
2022-10-21T20:11:24.586Z,70139.91
2022-10-21T20:13:52.194Z,70162.25
2022-10-21T20:16:26.638Z,70144.00
2022-10-21T20:18:55.082Z,70159.25
2022-10-21T20:21:23.557Z,70144.56
2022-10-21T20:23:51.441Z,70129.31
2022-10-21T20:26:19.350Z,70140.75
2022-10-21T20:28:46.888Z,70146.94
2022-10-21T20:31:15.580Z,70114.03
2022-10-21T20:33:45.625Z,70158.97
2022-10-21T20:36:17.359Z,70171.00
2022-10-21T20:38:45.645Z,70174.50
2022-10-21T20:41:15.899Z,70154.53
2022-10-21T20:43:43.734Z,70145.69
2022-10-21T20:46:13.247Z,70161.56
2022-10-21T20:48:43.391Z,70135.69
2022-10-21T20:51:19.142Z,70159.19
2022-10-21T20:56:21.438Z,70181.47
2022-10-21T20:58:49.571Z,70163.28
2022-10-21T21:01:25.254Z,70147.41
2022-10-21T21:03:56.062Z,70165.59
2022-10-21T21:06:23.860Z,70164.72
2022-10-21T21:09:29.060Z,70173.28
2022-10-21T21:11:39.965Z,70177.34
2022-10-21T21:14:07.553Z,70171.47
2022-10-21T21:16:34.903Z,70183.25
2022-10-21T21:19:06.576Z,70164.44
2022-10-21T21:21:37.045Z,70161.25
2022-10-21T21:24:05.367Z,70118.59
2022-10-21T21:26:35.446Z,70167.69
2022-10-21T21:29:06.231Z,70179.16
2022-10-21T21:31:35.384Z,70154.16
2022-10-21T21:34:03.171Z,70168.00
2022-10-21T21:36:30.934Z,70132.84
2022-10-21T21:38:58.307Z,70159.22
2022-10-21T21:41:26.253Z,70146.91
2022-10-21T21:43:56.528Z,70149.25
2022-10-21T21:46:24.340Z,70122.25
2022-10-21T21:49:06.254Z,70119.94
2022-10-21T21:51:35.996Z,70141.06
2022-10-21T21:54:04.796Z,70151.91
2022-10-21T21:56:32.293Z,70144.59
2022-10-21T21:58:59.710Z,70140.19
2022-10-21T22:01:29.124Z,70141.06
2022-10-21T22:03:57.393Z,70151.66
2022-10-21T22:06:28.206Z,70157.78
2022-10-21T22:08:56.415Z,70188.03
2022-10-21T22:11:25.824Z,70178.34
2022-10-21T22:13:53.392Z,70190.09
2022-10-21T22:16:24.142Z,70156.31
2022-10-21T22:18:51.732Z,70141.94
2022-10-21T22:21:19.811Z,70171.31
2022-10-21T22:23:50.793Z,70156.63
2022-10-21T22:26:20.651Z,70145.75
2022-10-21T22:28:48.058Z,70171.00
2022-10-21T22:31:17.118Z,70156.31
2022-10-21T22:33:45.825Z,70155.41
2022-10-21T22:36:13.673Z,70159.22
2022-10-21T22:38:40.980Z,70155.06
2022-10-21T22:41:12.172Z,70149.78
2022-10-21T22:43:40.529Z,70189.75
2022-10-21T22:46:29.119Z,70164.47
2022-10-21T22:48:55.600Z,70179.75
2022-10-21T22:51:23.065Z,70150.34
2022-10-21T22:53:55.219Z,70148.00
2022-10-21T22:56:25.343Z,70190.25
2022-10-21T22:58:53.413Z,70162.66
2022-10-21T23:01:23.937Z,70165.56
2022-10-21T23:03:52.125Z,70161.44
2022-10-21T23:06:19.507Z,70147.91
2022-10-21T23:08:46.817Z,70218.69
2022-10-21T23:11:14.781Z,70226.63
2022-10-21T23:13:56.039Z,70189.59
2022-10-21T23:16:29.787Z,70191.94
2022-10-21T23:18:57.516Z,70207.50
2022-10-21T23:21:24.826Z,70208.38
2022-10-21T23:23:52.866Z,70229.84
2022-10-21T23:26:20.219Z,70169.91
2022-10-21T23:28:47.692Z,70199.59
2022-10-21T23:31:15.136Z,70191.03
2022-10-21T23:33:42.464Z,70224.88
2022-10-21T23:36:09.776Z,70180.19
2022-10-21T23:38:37.194Z,70226.94
2022-10-21T23:41:04.893Z,70197.84
2022-10-21T23:43:32.207Z,70208.38
2022-10-21T23:45:59.494Z,70206.06
2022-10-21T23:48:26.836Z,70226.03
2022-10-21T23:50:54.238Z,70204.00
2022-10-21T23:53:21.519Z,70198.38
2022-10-21T23:55:48.868Z,70233.69
2022-10-21T23:58:16.275Z,70181.38
